Time;durP1;ratioP1;P1;durP2;ratioP2;P2;SDS_P1;SDS_P2;PMS_P1;PMS_P2;Temp;Humidity;BMP_temperature;BMP_pressure;BME280_temperature;BME280_humidity;BME280_pressure;Samples;Min_cycle;Max_cycle;Signal;HPM_P1;HPM_P2
2022/04/23 00:01:42;;;;;;;11.93;7.95;;;;;;;13.40;56.14;100696.25;4968718;28;20108;-60
2022/04/23 00:04:08;;;;;;;11.75;8.43;;;;;;;13.42;56.21;100689.22;4978789;28;20057;-59
2022/04/23 06:12:11;;;;;;;41.28;24.83;;;;;;;13.37;62.18;100678.78;5063734;27;20353;-60
2022/04/23 06:14:37;;;;;;;37.45;24.23;;;;;;;14.45;58.89;100665.34;5039816;28;20055;-58
2022/04/23 06:17:07;;;;;;;34.90;24.48;;;;;;;15.58;56.70;100675.84;5033581;28;20599;-58
2022/04/23 06:19:33;;;;;;;35.30;24.38;;;;;;;15.95;54.26;100670.19;5035044;28;20049;-59
2022/04/23 06:21:59;;;;;;;34.67;23.05;;;;;;;16.28;53.44;100663.63;5023508;28;20566;-59
2022/04/23 06:24:25;;;;;;;30.20;22.85;;;;;;;16.57;51.57;100664.97;5014978;28;20099;-59
2022/04/23 06:26:50;;;;;;;31.02;22.63;;;;;;;17.21;49.44;100653.44;5008885;28;20484;-60
2022/04/23 06:29:16;;;;;;;30.38;21.95;;;;;;;17.35;49.78;100653.19;5012356;28;20124;-60
2022/04/23 06:31:41;;;;;;;30.35;22.55;;;;;;;17.48;48.95;100657.38;4999462;28;20044;-58
2022/04/23 06:34:06;;;;;;;29.83;21.60;;;;;;;18.19;47.85;100633.97;5007510;28;20064;-60
2022/04/23 06:36:33;;;;;;;30.20;21.67;;;;;;;18.59;46.43;100632.25;5018609;28;20103;-60
2022/04/23 06:38:58;;;;;;;28.88;21.55;;;;;;;18.53;45.58;100649.97;5041928;28;20279;-59
2022/04/23 06:41:24;;;;;;;28.98;21.02;;;;;;;19.07;45.38;100639.88;5010058;28;20128;-60
2022/04/23 06:43:51;;;;;;;26.38;19.98;;;;;;;19.37;44.07;100644.38;5001256;28;20073;-60
2022/04/23 06:46:17;;;;;;;26.27;20.77;;;;;;;19.60;43.61;100637.63;5001458;28;20052;-60
2022/04/23 06:48:42;;;;;;;26.58;20.38;;;;;;;19.80;43.78;100635.31;5025154;28;20752;-59
2022/04/23 06:51:08;;;;;;;26.42;19.33;;;;;;;20.11;41.83;100635.28;5011153;28;21461;-58
2022/04/23 06:53:33;;;;;;;25.33;19.50;;;;;;;20.05;41.97;100640.75;5009144;28;20500;-60
2022/04/23 06:55:59;;;;;;;24.45;19.52;;;;;;;19.48;43.61;100640.59;5005766;28;20874;-60
2022/04/23 06:58:24;;;;;;;25.70;19.80;;;;;;;19.12;44.23;100642.41;5016121;28;20053;-59
2022/04/23 07:00:49;;;;;;;24.08;19.92;;;;;;;19.16;44.08;100630.84;5010366;28;20037;-59
2022/04/23 07:03:15;;;;;;;27.85;19.73;;;;;;;19.29;43.51;100626.97;5011550;28;20041;-58
2022/04/23 07:05:40;;;;;;;25.70;19.95;;;;;;;18.87;45.03;100626.28;5004205;28;20045;-59
2022/04/23 07:08:05;;;;;;;24.88;18.90;;;;;;;19.30;43.57;100632.22;5015650;28;20136;-60
2022/04/23 07:10:32;;;;;;;24.45;18.42;;;;;;;19.38;44.01;100639.97;5014739;28;20452;-59
2022/04/23 07:12:57;;;;;;;25.90;18.95;;;;;;;18.94;44.38;100630.50;5013187;28;20277;-59
2022/04/23 07:15:24;;;;;;;26.40;19.40;;;;;;;18.82;45.39;100629.03;5019873;28;20157;-59
2022/04/23 07:17:50;;;;;;;23.85;19.40;;;;;;;18.89;44.47;100637.69;5004590;28;20470;-60
2022/04/23 07:20:17;;;;;;;22.65;18.77;;;;;;;19.29;42.67;100630.47;5009571;28;20045;-59
2022/04/23 07:25:27;;;;;;;24.90;19.23;;;;;;;18.60;44.88;100633.94;4994822;28;20043;-60
2022/04/23 07:27:52;;;;;;;28.35;19.42;;;;;;;18.30;45.77;100628.50;4996274;28;20772;-60
2022/04/23 07:30:17;;;;;;;23.63;18.88;;;;;;;18.41;45.42;100626.47;4993545;28;20085;-59
2022/04/23 07:32:43;;;;;;;28.95;19.13;;;;;;;18.77;44.43;100632.72;5002721;28;20041;-59
2022/04/23 07:37:52;;;;;;;27.92;18.85;;;;;;;19.44;43.58;100618.66;4988906;28;20717;-60
2022/04/23 07:40:17;;;;;;;25.42;18.35;;;;;;;19.66;43.01;100611.88;4997869;28;20046;-59
2022/04/23 07:42:44;;;;;;;22.00;18.08;;;;;;;19.81;42.33;100607.94;4996326;28;20045;-59
2022/04/23 07:49:03;;;;;;;24.98;19.05;;;;;;;18.99;43.53;100608.34;5108352;27;20380;-59
2022/04/23 07:51:28;;;;;;;27.63;19.20;;;;;;;18.68;44.23;100607.38;5072879;27;20055;-59
2022/04/23 07:53:55;;;;;;;30.75;18.60;;;;;;;19.28;43.78;100604.94;5068719;27;20490;-59
2022/04/23 07:56:20;;;;;;;26.77;18.80;;;;;;;19.85;43.21;100599.88;5078146;27;20143;-58
2022/04/23 07:58:45;;;;;;;25.15;17.92;;;;;;;20.48;40.69;100598.88;5061013;28;20039;-59
2022/04/23 08:01:11;;;;;;;27.33;18.77;;;;;;;20.23;40.33;100598.72;5056070;28;20036;-58
2022/04/23 08:03:36;;;;;;;24.00;18.85;;;;;;;19.85;41.17;100594.56;5059772;27;20261;-61
2022/04/23 08:06:03;;;;;;;23.23;18.42;;;;;;;20.36;41.27;100595.75;5052094;28;20036;-58
2022/04/23 08:08:28;;;;;;;23.25;18.52;;;;;;;19.51;42.99;100607.03;5058827;27;20083;-59
2022/04/23 08:10:53;;;;;;;28.58;18.88;;;;;;;19.49;43.83;100595.63;5053484;28;20136;-60
2022/04/23 08:13:20;;;;;;;25.23;19.48;;;;;;;18.18;45.71;100606.72;5058403;27;20072;-59
2022/04/23 08:15:46;;;;;;;24.58;19.90;;;;;;;17.84;46.33;100601.31;5049674;28;20041;-59
2022/04/23 08:18:12;;;;;;;27.00;20.92;;;;;;;17.85;47.99;100583.72;5077190;27;20044;-59
2022/04/23 08:20:41;;;;;;;26.73;20.58;;;;;;;17.66;47.77;100582.38;5052374;28;20044;-61
2022/04/23 08:23:07;;;;;;;27.50;20.25;;;;;;;17.66;47.09;100587.63;5058440;27;20040;-60
2022/04/23 08:25:33;;;;;;;26.60;20.77;;;;;;;17.57;47.67;100585.13;5065202;27;20036;-59
2022/04/23 08:30:34;;;;;;;27.10;20.75;;;;;;;17.88;47.70;100582.78;5059198;28;20562;-59
2022/04/23 08:30:44;;;;;;;29.58;20.85;;;;;;;17.54;46.79;100582.56;5059981;28;20040;-59
2022/04/23 08:33:09;;;;;;;27.08;20.55;;;;;;;17.76;46.55;100582.13;5061397;28;20346;-59
2022/04/23 08:35:37;;;;;;;28.23;21.13;;;;;;;17.60;46.73;100588.63;5056079;28;20569;-60
2022/04/23 08:38:04;;;;;;;25.15;19.65;;;;;;;18.04;46.47;100581.56;5056351;27;20052;-58
2022/04/23 08:40:35;;;;;;;30.88;20.60;;;;;;;17.71;46.60;100576.09;5057324;27;20044;-59
2022/04/23 08:43:01;;;;;;;26.63;20.92;;;;;;;17.94;47.50;100580.00;5058382;28;20144;-58
2022/04/23 08:45:26;;;;;;;26.65;20.17;;;;;;;17.67;46.52;100574.44;5063775;28;20036;-57
2022/04/23 08:47:59;;;;;;;27.13;20.63;;;;;;;17.44;47.92;100579.25;5046340;27;20040;-58
2022/04/23 08:50:26;;;;;;;29.65;21.02;;;;;;;17.32;47.34;100571.59;5065064;27;20068;-57
2022/04/23 08:52:56;;;;;;;28.27;20.88;;;;;;;17.63;47.25;100590.31;5058837;27;20058;-57
2022/04/23 08:55:22;;;;;;;31.77;20.60;;;;;;;17.56;48.25;100581.66;5050596;27;20056;-57
2022/04/23 08:57:48;;;;;;;28.38;21.23;;;;;;;17.61;47.43;100578.94;5056656;27;20032;-58
2022/04/23 09:00:15;;;;;;;26.33;20.42;;;;;;;17.73;48.07;100573.44;5048211;28;20226;-57
2022/04/23 09:02:42;;;;;;;28.13;20.77;;;;;;;17.79;46.55;100566.25;5040966;28;20055;-55
2022/04/23 09:05:08;;;;;;;27.38;20.90;;;;;;;17.81;46.73;100566.22;5047236;28;20029;-59
2022/04/23 09:07:34;;;;;;;26.90;19.83;;;;;;;18.17;45.56;100572.47;5041892;28;20071;-58
2022/04/23 09:10:00;;;;;;;26.58;20.10;;;;;;;17.56;46.61;100572.88;5039677;27;20458;-57
2022/04/23 09:12:27;;;;;;;36.53;20.20;;;;;;;18.21;46.75;100563.59;5046663;28;20040;-58
2022/04/23 09:15:04;;;;;;;28.88;20.25;;;;;;;17.84;46.17;100563.53;5035772;28;20063;-59
2022/04/23 09:25:47;;;;;;;24.80;19.23;;;;;;;17.87;46.65;100568.72;5029480;28;20105;-57
2022/04/23 09:28:22;;;;;;;26.15;19.63;;;;;;;18.08;45.43;100563.00;5046526;28;20132;-57
2022/04/23 09:30:54;;;;;;;28.10;18.92;;;;;;;18.19;44.47;100560.09;5042590;28;20040;-57
2022/04/23 09:33:27;;;;;;;26.85;19.35;;;;;;;18.00;46.37;100564.03;5026596;28;20039;-57
2022/04/23 09:35:55;;;;;;;28.27;19.73;;;;;;;18.18;45.94;100571.56;5036483;28;20055;-58
2022/04/23 09:38:21;;;;;;;26.45;19.38;;;;;;;18.35;44.60;100556.22;5040421;28;20086;-59
2022/04/23 09:40:51;;;;;;;29.45;19.60;;;;;;;17.83;45.58;100560.00;5040219;28;20048;-58
2022/04/23 09:43:24;;;;;;;27.13;19.23;;;;;;;17.44;45.88;100563.44;5046372;28;20032;-60
2022/04/23 09:46:01;;;;;;;26.42;19.95;;;;;;;17.77;46.81;100586.50;5037661;28;20052;-58
2022/04/23 09:48:26;;;;;;;27.80;19.77;;;;;;;17.83;46.08;100565.28;5040545;28;20040;-58
2022/04/23 09:50:51;;;;;;;25.75;19.27;;;;;;;18.45;44.42;100572.69;5037610;28;20039;-58
2022/04/23 09:53:19;;;;;;;25.13;19.27;;;;;;;18.70;44.95;100565.97;5042650;28;20332;-58
2022/04/23 09:55:46;;;;;;;25.85;18.77;;;;;;;18.55;43.95;100569.84;5039262;27;20040;-59
2022/04/23 09:58:16;;;;;;;25.20;19.10;;;;;;;18.47;43.95;100568.25;5035746;28;20075;-59
2022/04/23 10:00:43;;;;;;;27.70;19.15;;;;;;;18.49;44.12;100569.94;5045785;28;20051;-58
2022/04/23 10:03:10;;;;;;;27.27;19.25;;;;;;;18.21;44.19;100576.78;5045714;28;20037;-60
2022/04/23 10:05:42;;;;;;;28.77;20.00;;;;;;;18.31;44.35;100580.06;5040565;28;20478;-58
2022/04/23 10:08:20;;;;;;;29.50;20.15;;;;;;;18.29;43.90;100580.13;5032823;28;20615;-58
2022/04/23 10:10:59;;;;;;;25.83;19.83;;;;;;;18.16;44.34;100581.28;5039567;28;20132;-59
2022/04/23 10:13:29;;;;;;;24.23;19.33;;;;;;;18.18;43.81;100568.91;5035183;28;20045;-59
2022/04/23 10:15:55;;;;;;;25.50;18.88;;;;;;;18.50;44.52;100565.53;5029677;27;21793;-59
2022/04/23 10:18:21;;;;;;;25.92;19.27;;;;;;;18.80;43.40;100554.25;5044422;28;20040;-60
2022/04/23 10:20:55;;;;;;;28.25;19.95;;;;;;;19.03;42.13;100556.28;5034999;28;20044;-60
2022/04/23 10:23:53;;;;;;;25.52;19.58;;;;;;;18.86;42.22;100564.66;5042999;28;20131;-58
2022/04/23 10:26:33;;;;;;;26.02;19.23;;;;;;;18.57;43.08;100570.66;5048636;28;20267;-59
2022/04/23 10:28:59;;;;;;;28.55;20.10;;;;;;;18.86;42.63;100564.66;5039772;28;20163;-60
2022/04/23 10:31:25;;;;;;;24.45;19.02;;;;;;;18.70;43.62;100567.72;5042028;28;20119;-59
2022/04/23 10:33:51;;;;;;;27.10;19.55;;;;;;;19.19;41.71;100565.56;5019207;28;20370;-58
2022/04/23 10:36:19;;;;;;;25.10;19.60;;;;;;;19.02;42.92;100557.22;5042737;27;20417;-59
2022/04/23 10:38:51;;;;;;;24.60;19.40;;;;;;;19.10;43.79;100562.28;5034786;28;20152;-57
2022/04/23 10:41:18;;;;;;;25.58;19.05;;;;;;;19.19;42.31;100557.66;5048012;28;20040;-59
2022/04/23 10:44:02;;;;;;;28.02;20.08;;;;;;;18.95;42.74;100558.28;5035609;28;20139;-60
2022/04/23 10:46:36;;;;;;;24.70;19.80;;;;;;;19.11;42.02;100556.97;5034243;27;20043;-59
2022/04/23 10:49:21;;;;;;;24.23;19.30;;;;;;;19.09;42.16;100561.41;5039929;28;20044;-58
2022/04/23 10:51:52;;;;;;;25.05;19.15;;;;;;;19.22;42.66;100554.03;5032543;28;20482;-58
2022/04/23 10:54:22;;;;;;;25.73;19.92;;;;;;;19.07;41.85;100557.97;5043850;28;20425;-60
2022/04/23 10:56:49;;;;;;;27.63;20.92;;;;;;;19.15;42.63;100555.13;5045987;28;20123;-58
2022/04/23 10:59:33;;;;;;;25.63;19.15;;;;;;;19.35;42.39;100548.38;5046567;28;20044;-58
2022/04/23 11:02:05;;;;;;;24.88;19.20;;;;;;;19.69;41.74;100540.41;5032998;28;20399;-60
2022/04/23 11:04:32;;;;;;;23.77;19.10;;;;;;;19.45;43.58;100543.72;5045877;28;20379;-59
2022/04/23 11:12:20;;;;;;;27.00;19.85;;;;;;;19.43;42.19;100543.75;5040599;28;20395;-58
2022/04/23 11:14:48;;;;;;;24.77;18.90;;;;;;;19.88;41.14;100534.56;5049554;27;20032;-58
2022/04/23 11:17:23;;;;;;;25.42;20.15;;;;;;;19.51;41.91;100532.13;5044337;28;20340;-58
2022/04/23 11:19:52;;;;;;;26.65;19.25;;;;;;;19.68;41.84;100535.16;5024904;28;20045;-59
2022/04/23 11:22:19;;;;;;;28.15;20.15;;;;;;;19.75;42.25;100537.56;5035885;27;20048;-59
2022/04/23 11:24:46;;;;;;;28.80;20.35;;;;;;;20.04;41.18;100522.59;5036639;28;20466;-58
2022/04/23 11:27:25;;;;;;;24.58;18.83;;;;;;;20.54;40.15;100521.88;5044334;28;20045;-59
2022/04/23 11:29:54;;;;;;;27.10;18.92;;;;;;;20.70;40.89;100554.00;5034228;28;21235;-59
2022/04/23 11:32:26;;;;;;;24.02;18.58;;;;;;;20.39;39.56;100527.66;5043593;28;20040;-59
2022/04/23 11:34:55;;;;;;;26.08;19.30;;;;;;;20.00;40.72;100528.91;5030298;28;20068;-58
2022/04/23 11:37:37;;;;;;;26.45;19.20;;;;;;;19.96;40.53;100530.75;5039640;28;20097;-59
2022/04/23 11:40:06;;;;;;;27.40;20.30;;;;;;;20.16;40.13;100503.69;5037520;28;20118;-59
2022/04/23 11:42:44;;;;;;;30.27;19.45;;;;;;;20.23;41.08;100510.50;5047523;28;20051;-59
2022/04/23 11:45:11;;;;;;;23.27;18.80;;;;;;;20.22;40.86;100503.47;5039008;28;20407;-59
2022/04/23 11:47:37;;;;;;;30.50;19.42;;;;;;;20.12;40.76;100502.91;5030491;28;20071;-58
2022/04/23 11:50:17;;;;;;;31.42;20.02;;;;;;;19.80;40.92;100519.78;5036650;28;20044;-58
2022/04/23 11:52:45;;;;;;;30.00;19.00;;;;;;;20.00;41.29;100513.88;5037028;28;20044;-58
2022/04/23 11:55:24;;;;;;;24.77;18.67;;;;;;;20.18;40.43;100508.03;5041193;28;20373;-58
2022/04/23 11:57:54;;;;;;;24.77;19.48;;;;;;;19.97;40.09;100521.91;5033862;28;20044;-58
2022/04/23 12:00:20;;;;;;;24.48;19.05;;;;;;;19.94;40.94;100514.09;5034610;28;20075;-58
2022/04/23 12:02:47;;;;;;;24.35;19.00;;;;;;;20.01;40.37;100520.88;5045540;28;20036;-59
2022/04/23 12:05:21;;;;;;;26.38;20.15;;;;;;;19.62;41.16;100509.75;5037534;27;20303;-58
2022/04/23 12:07:46;;;;;;;;;;;;;;;19.72;41.61;100516.50;5035670;27;20101;-59
2022/04/23 12:10:12;;;;;;;28.10;19.67;;;;;;;19.69;41.89;100508.66;5040293;28;19943;-58
2022/04/23 12:12:38;;;;;;;26.00;19.45;;;;;;;19.81;40.86;100520.66;5044775;27;20228;-60
2022/04/23 12:15:09;;;;;;;28.85;20.48;;;;;;;19.74;41.69;100501.44;5033841;28;20816;-60
2022/04/23 12:17:54;;;;;;;28.58;20.73;;;;;;;19.59;41.85;100503.66;5040805;28;20045;-57
2022/04/23 12:53:45;;;;;;;28.52;18.40;;;;;;;20.17;39.78;100463.06;5079606;27;20375;-57
2022/04/23 12:56:10;;;;;;;30.75;18.40;;;;;;;20.61;39.63;100446.56;5055988;28;20052;-59
2022/04/23 12:58:35;;;;;;;27.10;17.55;;;;;;;20.98;39.23;100454.09;5047609;28;20705;-60
2022/04/23 13:01:01;;;;;;;24.70;18.08;;;;;;;20.82;37.69;100460.00;5049518;28;20057;-59
2022/04/23 13:03:37;;;;;;;27.20;18.67;;;;;;;20.53;38.32;100461.88;5049984;27;20495;-59
2022/04/23 13:08:54;;;;;;;26.58;19.13;;;;;;;20.48;39.44;100457.66;5034558;28;20066;-56
2022/04/23 13:08:55;;;;;;;25.33;18.52;;;;;;;20.39;38.80;100452.66;5046602;28;20495;-59
2022/04/23 13:11:24;;;;;;;24.52;18.17;;;;;;;20.42;38.72;100450.78;5044231;28;20543;-58
2022/04/23 13:13:54;;;;;;;25.20;18.83;;;;;;;20.26;39.43;100468.03;5049645;27;20135;-57
2022/04/23 13:16:24;;;;;;;28.75;18.90;;;;;;;20.32;38.63;100449.34;5051551;28;20043;-58
2022/04/23 13:18:50;;;;;;;26.85;17.75;;;;;;;20.71;39.32;100435.66;5047690;28;20048;-59
2022/04/23 13:21:16;;;;;;;27.77;19.35;;;;;;;20.41;38.65;100443.75;5056661;28;20060;-59
2022/04/23 13:23:41;;;;;;;29.05;18.98;;;;;;;20.55;38.37;100435.34;5051550;28;20045;-58
2022/04/23 13:26:06;;;;;;;30.45;19.67;;;;;;;20.53;38.88;100432.75;5039529;28;20044;-59
2022/04/23 13:28:32;;;;;;;25.45;18.88;;;;;;;20.65;38.57;100437.63;5056536;27;20041;-59
2022/04/23 13:30:57;;;;;;;24.63;17.85;;;;;;;20.86;38.32;100429.84;5054197;27;20052;-59
2022/04/23 13:33:22;;;;;;;26.42;18.20;;;;;;;20.83;39.60;100427.28;5051434;28;20078;-59
2022/04/23 13:35:48;;;;;;;27.48;18.10;;;;;;;20.90;38.35;100423.50;5057946;27;20068;-56
2022/04/23 13:38:16;;;;;;;24.73;18.15;;;;;;;20.91;38.41;100426.09;5044885;27;20052;-58
2022/04/23 13:40:44;;;;;;;24.63;18.13;;;;;;;20.94;38.59;100427.75;5049191;28;20036;-59
2022/04/23 13:43:09;;;;;;;26.15;18.67;;;;;;;21.00;37.61;100439.00;5055935;27;20197;-59
2022/04/23 13:45:35;;;;;;;23.38;17.75;;;;;;;21.13;38.37;100430.59;5051642;28;20037;-58
2022/04/23 13:48:04;;;;;;;25.35;18.60;;;;;;;21.33;36.59;100422.81;5053878;27;20171;-58
2022/04/23 13:50:30;;;;;;;26.52;19.33;;;;;;;21.19;37.60;100409.22;5027756;28;20044;-59
2022/04/23 13:52:56;;;;;;;29.83;19.27;;;;;;;21.38;36.75;100418.19;5031886;28;20052;-58
2022/04/23 13:55:21;;;;;;;30.20;20.08;;;;;;;21.21;37.16;100410.88;5020547;28;20056;-58
2022/04/23 13:57:47;;;;;;;26.75;19.63;;;;;;;21.15;37.08;100416.41;5038684;28;20127;-58
2022/04/23 14:00:14;;;;;;;26.10;18.48;;;;;;;21.13;37.03;100412.91;5038662;27;22325;-59
2022/04/23 14:10:51;;;;;;;26.38;18.98;;;;;;;21.45;36.26;100407.31;5012342;28;20114;-59
2022/04/23 14:13:16;;;;;;;27.40;19.65;;;;;;;21.36;36.10;100407.63;5019263;28;20559;-60
2022/04/23 14:15:41;;;;;;;27.90;18.52;;;;;;;21.24;36.90;100396.63;5017800;28;20438;-59
2022/04/23 14:18:07;;;;;;;26.58;18.88;;;;;;;21.36;36.43;100402.34;5012729;28;20848;-60
2022/04/23 14:20:33;;;;;;;27.17;19.48;;;;;;;21.41;37.24;100383.59;5025459;28;20052;-60
2022/04/23 14:23:01;;;;;;;34.15;19.48;;;;;;;21.15;37.23;100384.59;5018210;28;20610;-59
2022/04/23 14:25:27;;;;;;;25.23;19.10;;;;;;;21.26;36.77;100377.09;5017111;28;20041;-59
2022/04/23 14:28:01;;;;;;;26.20;18.45;;;;;;;21.44;37.27;100389.66;5013334;28;20053;-59
2022/04/23 14:30:27;;;;;;;25.83;19.13;;;;;;;21.58;37.42;100391.78;5025077;28;20130;-59
2022/04/23 14:32:53;;;;;;;33.08;19.27;;;;;;;21.38;36.09;100375.78;5025001;28;20387;-59
2022/04/23 14:35:18;;;;;;;29.48;18.50;;;;;;;21.29;36.70;100370.81;5009109;28;20037;-59
2022/04/23 14:37:44;;;;;;;25.98;18.13;;;;;;;21.56;36.83;100380.34;5025065;28;20151;-58
2022/04/23 14:40:10;;;;;;;25.73;18.63;;;;;;;21.63;36.21;100375.66;5015271;28;20882;-59
2022/04/23 14:42:36;;;;;;;26.80;18.55;;;;;;;21.86;36.08;100362.34;5019154;28;20061;-60
2022/04/23 14:45:01;;;;;;;24.40;17.38;;;;;;;21.86;36.63;100373.81;5015487;28;20052;-59
2022/04/23 14:47:27;;;;;;;23.95;17.83;;;;;;;21.82;36.12;100374.00;5019322;28;20033;-60
2022/04/23 14:49:54;;;;;;;25.65;18.63;;;;;;;21.31;36.07;100375.13;5033789;28;20516;-61
2022/04/23 14:55:06;;;;;;;24.25;18.33;;;;;;;21.19;37.14;100382.69;5022894;28;20044;-60
2022/04/23 14:57:31;;;;;;;27.35;18.67;;;;;;;21.17;36.70;100387.19;5014416;28;20056;-59
2022/04/23 14:59:56;;;;;;;28.05;18.60;;;;;;;21.26;35.44;100370.94;5018350;28;20037;-60
2022/04/23 15:02:22;;;;;;;23.25;17.70;;;;;;;21.30;35.83;100367.22;5019286;28;20964;-60
2022/04/23 15:04:47;;;;;;;24.45;18.42;;;;;;;21.12;35.77;100365.25;5022225;28;20054;-59
2022/04/23 15:07:13;;;;;;;25.80;17.95;;;;;;;21.03;35.82;100374.44;5017958;28;20139;-60
2022/04/23 15:09:38;;;;;;;24.02;17.65;;;;;;;21.21;35.50;100365.81;5017354;28;20660;-58
2022/04/23 15:12:04;;;;;;;26.13;17.83;;;;;;;21.27;35.75;100376.19;5017873;28;20056;-59
2022/04/23 15:14:33;;;;;;;24.85;18.02;;;;;;;21.24;35.26;100371.00;5008622;28;20064;-59
2022/04/23 15:16:58;;;;;;;24.15;17.23;;;;;;;21.41;36.17;100371.19;5017218;28;20385;-60
2022/04/23 15:19:25;;;;;;;24.27;16.40;;;;;;;21.57;35.80;100371.47;5012162;28;20068;-60
2022/04/23 15:21:51;;;;;;;25.77;17.23;;;;;;;21.02;35.69;100372.69;5002314;28;20033;-58
2022/04/23 15:24:16;;;;;;;25.70;17.67;;;;;;;21.01;35.63;100366.53;5003830;28;20048;-58
2022/04/23 15:26:42;;;;;;;21.65;17.25;;;;;;;20.99;36.06;100363.06;5020039;28;20076;-59
2022/04/23 15:29:08;;;;;;;22.75;16.70;;;;;;;20.91;36.17;100370.47;5022166;28;20049;-58
2022/04/23 15:31:34;;;;;;;22.48;15.88;;;;;;;20.97;35.71;100385.25;5021810;28;20510;-59
2022/04/23 15:34:00;;;;;;;22.65;15.77;;;;;;;20.91;35.61;100369.59;5009749;28;20474;-59
2022/04/23 15:36:25;;;;;;;22.83;16.52;;;;;;;20.88;35.18;100370.56;5019997;28;20102;-57
2022/04/23 15:38:50;;;;;;;23.27;16.08;;;;;;;20.72;35.42;100372.03;5018294;28;20435;-58
2022/04/23 15:41:16;;;;;;;29.10;17.00;;;;;;;20.67;35.60;100376.66;5023475;28;20574;-59
2022/04/23 15:43:41;;;;;;;26.85;15.57;;;;;;;20.68;35.56;100373.06;5018052;28;20040;-57
2022/04/23 15:46:07;;;;;;;20.88;15.70;;;;;;;20.88;35.11;100380.28;5012755;28;20044;-55
2022/04/23 15:48:32;;;;;;;20.95;15.48;;;;;;;20.51;35.52;100378.09;5021147;28;20547;-58
2022/04/23 15:50:57;;;;;;;22.90;15.23;;;;;;;20.54;35.56;100367.41;5019435;28;20518;-59
2022/04/23 15:53:23;;;;;;;21.00;14.77;;;;;;;20.56;35.55;100370.84;5018643;28;20041;-59
2022/04/23 15:55:48;;;;;;;20.73;14.10;;;;;;;20.76;35.68;100365.72;5013012;28;20544;-59
2022/04/23 15:58:13;;;;;;;20.23;13.15;;;;;;;20.81;35.38;100379.63;5017798;28;20048;-61
2022/04/23 16:00:42;;;;;;;19.83;14.00;;;;;;;20.65;35.18;100374.06;5017301;28;20045;-59
2022/04/23 16:03:26;;;;;;;22.20;13.52;;;;;;;20.37;35.57;100386.50;5023236;28;20044;-59
2022/04/23 16:05:53;;;;;;;19.77;13.98;;;;;;;20.30;35.31;100376.19;5013234;28;20484;-59
2022/04/23 16:08:18;;;;;;;20.45;13.77;;;;;;;20.27;35.94;100371.84;5016875;28;20339;-59
2022/04/23 16:10:43;;;;;;;21.73;13.93;;;;;;;20.38;34.91;100384.72;5020477;28;20511;-58
2022/04/23 16:13:09;;;;;;;19.15;13.13;;;;;;;20.39;34.70;100375.88;5011259;28;20032;-58
2022/04/23 16:15:35;;;;;;;18.33;13.82;;;;;;;20.24;35.00;100374.59;5014169;28;20148;-59
2022/04/23 16:18:00;;;;;;;21.45;12.35;;;;;;;20.59;35.69;100371.63;5006719;28;20076;-58
2022/04/23 16:20:26;;;;;;;17.90;13.27;;;;;;;20.66;34.42;100369.63;5019213;28;20471;-59
2022/04/23 16:22:51;;;;;;;26.05;13.45;;;;;;;20.87;34.87;100381.19;5015611;28;20056;-59
2022/04/23 16:25:17;;;;;;;21.15;13.68;;;;;;;20.54;35.88;100368.28;5011159;28;20470;-59
2022/04/23 16:27:42;;;;;;;18.48;13.70;;;;;;;20.52;35.30;100375.41;5013602;28;20056;-59
2022/04/23 16:30:08;;;;;;;18.83;13.75;;;;;;;20.21;35.46;100364.97;5008193;28;20073;-59
2022/04/23 16:32:34;;;;;;;18.67;13.32;;;;;;;20.48;35.38;100371.13;5016997;28;20045;-60
2022/04/23 16:35:00;;;;;;;17.98;13.40;;;;;;;20.48;35.36;100375.56;5028177;28;20059;-59
2022/04/23 16:46:37;;;;;;;19.83;12.90;;;;;;;20.62;35.91;100366.19;5015217;28;20158;-59
2022/04/23 16:48:27;;;;;;;21.17;13.48;;;;;;;20.30;36.92;100361.16;5020024;28;20056;-59
2022/04/23 16:50:54;;;;;;;16.23;12.82;;;;;;;20.28;37.25;100362.97;5020660;28;20539;-60
2022/04/23 16:53:19;;;;;;;17.65;13.38;;;;;;;20.29;36.54;100359.44;5018687;28;20244;-60
2022/04/23 16:55:45;;;;;;;19.67;13.73;;;;;;;20.15;36.40;100372.25;5018735;28;20561;-59
2022/04/23 16:58:10;;;;;;;20.77;13.70;;;;;;;20.13;35.74;100369.66;5010071;28;20553;-60
2022/04/23 17:00:40;;;;;;;21.25;13.95;;;;;;;19.95;36.31;100361.47;5017848;28;20056;-59
2022/04/23 17:03:06;;;;;;;18.42;13.73;;;;;;;20.03;36.49;100370.03;5009715;28;20614;-59
2022/04/23 17:05:33;;;;;;;18.83;13.35;;;;;;;19.83;36.85;100360.09;5021404;28;20140;-59
2022/04/23 17:07:58;;;;;;;17.13;13.13;;;;;;;19.83;36.83;100371.53;5014857;28;20641;-59
2022/04/23 17:10:24;;;;;;;19.83;13.82;;;;;;;19.75;36.65;100376.22;5017162;28;20045;-58
2022/04/23 17:12:49;;;;;;;23.00;13.85;;;;;;;19.45;36.46;100382.44;5048020;28;20368;-59
2022/04/23 17:15:14;;;;;;;20.83;14.30;;;;;;;19.49;36.98;100386.75;5017832;28;20049;-60
2022/04/23 17:17:40;;;;;;;19.17;13.75;;;;;;;19.50;37.09;100382.34;5017053;28;20369;-59
2022/04/23 17:20:09;;;;;;;17.52;13.60;;;;;;;19.56;36.26;100380.38;5026908;28;20069;-59
2022/04/23 17:22:35;;;;;;;18.55;13.88;;;;;;;19.53;36.14;100383.09;5018265;28;20044;-59
2022/04/23 17:25:02;;;;;;;18.48;13.32;;;;;;;19.63;36.73;100381.91;5008782;28;20583;-58
2022/04/23 17:27:29;;;;;;;20.50;13.50;;;;;;;19.46;36.82;100389.47;5022553;28;20562;-58
2022/04/23 17:29:55;;;;;;;18.75;13.60;;;;;;;19.42;37.21;100378.09;5007972;28;20040;-61
2022/04/23 17:32:21;;;;;;;21.25;13.98;;;;;;;19.46;37.44;100378.06;5019308;28;20045;-59
2022/04/23 17:34:46;;;;;;;20.38;13.80;;;;;;;19.44;37.09;100386.88;5032777;28;20068;-59
2022/04/23 17:37:11;;;;;;;19.80;13.48;;;;;;;19.39;37.75;100383.47;5023497;28;20036;-59
2022/04/23 17:39:37;;;;;;;18.88;13.77;;;;;;;19.42;37.87;100385.16;5019680;28;20512;-59
2022/04/23 17:42:02;;;;;;;18.50;13.93;;;;;;;19.26;38.23;100391.84;5019448;28;20791;-60
2022/04/23 17:44:31;;;;;;;17.48;13.63;;;;;;;19.30;38.46;100394.34;5019217;28;20090;-60
2022/04/23 17:46:56;;;;;;;19.05;13.70;;;;;;;19.24;38.34;100385.72;5025821;28;20436;-60
2022/04/23 17:49:21;;;;;;;19.88;13.93;;;;;;;19.15;38.47;100388.66;5021719;28;20447;-60
2022/04/23 17:51:49;;;;;;;19.02;14.00;;;;;;;19.22;38.62;100388.41;5018346;28;20507;-59
2022/04/23 17:54:15;;;;;;;18.63;13.60;;;;;;;19.05;38.04;100393.31;5019080;28;20053;-58
2022/04/23 17:56:40;;;;;;;27.95;14.57;;;;;;;19.01;38.91;100396.97;5018291;28;20140;-60
2022/04/23 17:59:06;;;;;;;20.83;14.40;;;;;;;18.96;39.37;100394.47;5013844;28;20043;-59
2022/04/23 18:09:44;;;;;;;20.25;14.80;;;;;;;18.79;39.54;100403.75;5015398;28;20052;-58
2022/04/23 18:12:10;;;;;;;19.80;14.23;;;;;;;18.63;39.70;100393.63;5014144;28;20311;-60
2022/04/23 18:14:41;;;;;;;21.63;14.32;;;;;;;18.62;39.72;100406.84;5020631;28;20774;-60
2022/04/23 18:17:07;;;;;;;21.52;14.13;;;;;;;18.56;40.08;100414.94;5024949;28;20123;-60
2022/04/23 18:19:34;;;;;;;19.45;14.60;;;;;;;18.46;39.95;100410.78;5018698;28;20051;-61
2022/04/23 18:22:03;;;;;;;23.83;15.00;;;;;;;18.30;40.54;100422.66;5002633;28;20083;-58
2022/04/23 18:24:34;;;;;;;21.42;15.43;;;;;;;18.29;40.19;100413.88;5025202;28;20045;-59
2022/04/23 18:26:59;;;;;;;25.00;15.25;;;;;;;18.23;40.98;100419.31;5018654;28;20144;-60
2022/04/23 18:29:25;;;;;;;20.05;14.85;;;;;;;18.15;40.81;100422.13;5015109;28;20040;-59
2022/04/23 18:31:54;;;;;;;21.17;14.98;;;;;;;18.14;39.85;100420.38;5012840;28;20132;-58
2022/04/23 18:34:21;;;;;;;20.10;15.05;;;;;;;18.13;40.20;100425.69;5010846;28;20179;-60
2022/04/23 18:36:48;;;;;;;23.30;14.80;;;;;;;17.96;40.87;100426.09;5005849;28;20132;-61
2022/04/23 18:39:13;;;;;;;20.75;13.82;;;;;;;18.06;40.31;100430.25;5021089;28;20440;-59
2022/04/23 18:41:39;;;;;;;24.17;14.93;;;;;;;17.95;40.74;100428.78;5021987;28;20701;-60